»·PEaware :: SKW5688 KDEN-KBOI

SKW5688 :: KDEN-KBOI

FLIGHT INFORMATION

Flight Status: Arrived
Operator:
SkyWest Airlines
More flights by this operator :: More flights under this callsign
Pilot: John D. (29395)
Aircraft: CANADAIR CL-600 CRJ-200
(CRJ2)
More flights by this aircraft type
Origin: KDEN Denver Intl
United States
Destination: KBOI Boise Air Terminal/Gowen
United States
More flights between these airports :: More routes between these airports
Route: ZIMMR1 CHNGY DCT MLD DCT REAPS KOURT3
File this flight plan on PilotEdge
Remarks:
Altitude:
(Current/Filed)
32,000ft
Speed:
(Current/Filed)
420kts
Departed: 10-May-20 08:39 PM
Arrived: 10-May-20 10:15 PM
Distance/Time
Traveled:
563nm/1:36
Distance/Time
To Go:
Arrived

Flight Plot

Page will automatically refresh every two minutes.


Map Options




Map Legend


Flown Route
Filed Route
Departure Airport
Arrival Airport
Navaid (VOR, NDB)
Fix

Horizontal Profiles

Position Reports

Time Latitude Longitude Heading Altitude Ground
Speed
10-May-20 20:01 39.859352 -104.676343 180 5439ft 0kts
10-May-20 20:02 39.859352 -104.676343 180 5439ft 0kts
10-May-20 20:03 39.859352 -104.676343 180 5439ft 0kts
10-May-20 20:04 39.859352 -104.676343 180 5439ft 0kts
10-May-20 20:05 39.859352 -104.676343 180 5439ft 0kts
10-May-20 20:06 39.859352 -104.676343 180 5439ft 0kts
10-May-20 20:06 39.859352 -104.676343 180 5439ft 0kts
10-May-20 20:08 39.859352 -104.676343 180 5439ft 0kts
10-May-20 20:08 39.859352 -104.676343 180 5439ft 0kts
10-May-20 20:10 39.859352 -104.676343 180 5439ft 0kts
10-May-20 20:10 39.859352 -104.676343 180 5439ft 0kts
10-May-20 20:11 39.859352 -104.676343 180 5439ft 0kts
10-May-20 20:13 39.859352 -104.676343 180 5439ft 0kts
10-May-20 20:13 39.859352 -104.676343 180 5439ft 0kts
10-May-20 20:15 39.859352 -104.676343 180 5439ft 0kts
10-May-20 20:15 39.859352 -104.676343 180 5439ft 0kts
10-May-20 20:16 39.859352 -104.676343 180 5439ft 0kts
10-May-20 20:17 39.859352 -104.676343 180 5439ft 0kts
10-May-20 20:18 39.859352 -104.676343 180 5439ft 0kts
10-May-20 20:19 39.859352 -104.676343 180 5439ft 0kts
10-May-20 20:20 39.859352 -104.676343 180 5439ft 0kts
10-May-20 20:21 39.859352 -104.676343 180 5439ft 0kts
10-May-20 20:22 39.859352 -104.676343 180 5439ft 0kts
10-May-20 20:23 39.859352 -104.676343 180 5439ft 0kts
10-May-20 20:24 39.859352 -104.676343 180 5439ft 0kts
10-May-20 20:25 39.859352 -104.676343 180 5439ft 0kts
10-May-20 20:26 39.859352 -104.676343 180 5439ft 0kts
10-May-20 20:27 39.859352 -104.676343 180 5439ft 0kts
10-May-20 20:28 39.859352 -104.676343 180 5439ft 0kts
10-May-20 20:29 39.859995 -104.676142 239 5439ft 1kts
10-May-20 20:30 39.860042 -104.675884 270 5439ft 0kts
10-May-20 20:31 39.860042 -104.675884 270 5439ft 0kts
10-May-20 20:32 39.860041 -104.676196 269 5439ft 8kts
10-May-20 20:33 39.860152 -104.679932 301 5439ft 5kts
10-May-20 20:34 39.860342 -104.681956 251 5439ft 8kts
10-May-20 20:35 39.861071 -104.683959 1 5439ft 9kts
10-May-20 20:36 39.863543 -104.683913 357 5439ft 6kts
10-May-20 20:37 39.864209 -104.684418 281 5439ft 5kts
10-May-20 20:38 39.866131 -104.687150 1 5439ft 42kts
10-May-20 20:39 39.901566 -104.687859 358 6221ft 174kts
10-May-20 20:40 39.927831 -104.732956 245 8117ft 241kts
10-May-20 20:41 39.924482 -104.820695 273 9522ft 295kts
10-May-20 20:42 39.932358 -104.925652 270 10108ft 323kts
10-May-20 20:43 39.935529 -105.049657 269 14138ft 344kts
10-May-20 20:44 39.938132 -105.172606 273 18361ft 344kts
10-May-20 20:45 39.945328 -105.297901 278 21715ft 357kts
10-May-20 20:46 39.955595 -105.429093 277 23233ft 382kts
10-May-20 20:47 39.966247 -105.566579 278 25026ft 375kts
10-May-20 20:48 39.975513 -105.702309 275 27862ft 385kts
10-May-20 20:49 39.982723 -105.843971 275 30346ft 397kts
10-May-20 20:50 39.989901 -105.990045 275 32214ft 414kts
10-May-20 20:51 39.997065 -106.139780 275 32206ft 416kts
10-May-20 20:52 40.004022 -106.289200 275 32204ft 416kts
10-May-20 20:53 40.010859 -106.440336 276 32194ft 416kts
10-May-20 20:54 40.055793 -106.575779 297 32143ft 416kts
10-May-20 20:55 40.109597 -106.709746 296 32148ft 417kts
10-May-20 20:56 40.162973 -106.843102 296 32142ft 419kts
10-May-20 20:57 40.216734 -106.977991 296 32145ft 420kts
10-May-20 20:58 40.270811 -107.114348 296 32146ft 421kts
10-May-20 20:59 40.324838 -107.251189 295 32144ft 422kts
10-May-20 21:00 40.378950 -107.388830 295 32128ft 423kts
10-May-20 21:01 40.433000 -107.527005 295 32106ft 424kts
10-May-20 21:02 40.486755 -107.665097 294 32110ft 424kts
10-May-20 21:03 40.540509 -107.803755 294 32111ft 425kts
10-May-20 21:04 40.592279 -107.937972 295 32110ft 426kts
10-May-20 21:05 40.645200 -108.075737 294 32102ft 427kts
10-May-20 21:06 40.697918 -108.213692 294 32101ft 428kts
10-May-20 21:07 40.751630 -108.354890 294 32114ft 429kts
10-May-20 21:08 40.804976 -108.495800 294 32130ft 429kts
10-May-20 21:09 40.858270 -108.637253 294 32130ft 430kts
10-May-20 21:10 40.911077 -108.778091 294 32138ft 431kts
10-May-20 21:11 40.964090 -108.920157 293 32146ft 432kts
10-May-20 21:12 41.016829 -109.062204 293 32124ft 433kts
10-May-20 21:13 41.069913 -109.205895 293 32100ft 434kts
10-May-20 21:14 41.122579 -109.349138 293 32097ft 434kts
10-May-20 21:15 41.174389 -109.490779 293 32096ft 435kts
10-May-20 21:16 41.223071 -109.624491 293 32094ft 434kts
10-May-20 21:17 41.271277 -109.757535 292 32103ft 435kts
10-May-20 21:18 41.320552 -109.894146 292 32113ft 435kts
10-May-20 21:19 41.368694 -110.028161 292 32127ft 435kts
10-May-20 21:20 41.418241 -110.166960 292 32140ft 436kts
10-May-20 21:21 41.469099 -110.310041 292 32143ft 436kts
10-May-20 21:22 41.520764 -110.456128 292 32142ft 437kts
10-May-20 21:23 41.572281 -110.602556 292 32141ft 437kts
10-May-20 21:24 41.623791 -110.749709 291 32149ft 438kts
10-May-20 21:25 41.675578 -110.898461 291 32145ft 440kts
10-May-20 21:26 41.726931 -111.046740 291 32042ft 442kts
10-May-20 21:27 41.778872 -111.197522 290 31971ft 443kts
10-May-20 21:28 41.830482 -111.348166 290 31970ft 443kts
10-May-20 21:29 41.881897 -111.499069 290 31969ft 444kts
10-May-20 21:30 41.933087 -111.650136 289 31972ft 444kts
10-May-20 21:31 41.984257 -111.801950 289 32006ft 445kts
10-May-20 21:32 42.035157 -111.953849 289 32014ft 445kts
10-May-20 21:33 42.085822 -112.105854 289 31994ft 446kts
10-May-20 21:34 42.136285 -112.258106 289 31986ft 445kts
10-May-20 21:35 42.181999 -112.396786 289 31985ft 445kts
10-May-20 21:36 42.192844 -112.429760 289 31985ft 445kts
10-May-20 21:38 42.331017 -112.669448 303 32000ft 456kts
10-May-20 21:39 42.411007 -112.803341 304 31992ft 457kts
10-May-20 21:40 42.490571 -112.937116 304 31968ft 458kts
10-May-20 21:41 42.570791 -113.072622 304 31945ft 459kts
10-May-20 21:42 42.650838 -113.208462 304 31948ft 460kts
10-May-20 21:43 42.730799 -113.344739 304 31952ft 460kts
10-May-20 21:44 42.810782 -113.481720 304 31919ft 460kts
10-May-20 21:45 42.890046 -113.618128 305 29652ft 460kts
10-May-20 21:46 42.968835 -113.754298 304 27398ft 449kts
10-May-20 21:47 43.045111 -113.886705 304 25305ft 438kts
10-May-20 21:48 43.119994 -114.017273 304 23971ft 437kts
10-May-20 21:49 43.175903 -114.157846 283 23033ft 427kts
10-May-20 21:50 43.205338 -114.309145 283 21171ft 418kts
10-May-20 21:51 43.234612 -114.460792 283 19527ft 407kts
10-May-20 21:52 43.263386 -114.610922 283 18800ft 410kts
10-May-20 21:53 43.292393 -114.763501 283 17372ft 411kts
10-May-20 21:54 43.320902 -114.914637 283 15872ft 406kts
10-May-20 21:55 43.348817 -115.063819 283 14371ft 402kts
10-May-20 21:56 43.376407 -115.212734 283 13781ft 404kts
10-May-20 21:57 43.402880 -115.356860 283 12537ft 391kts
10-May-20 21:58 43.427559 -115.491423 283 12485ft 324kts
10-May-20 21:59 43.449721 -115.601470 293 11631ft 294kts
10-May-20 22:00 43.482943 -115.705515 293 10648ft 301kts
10-May-20 22:01 43.516669 -115.809614 294 9644ft 294kts
10-May-20 22:02 43.549541 -115.911303 294 8637ft 289kts
10-May-20 22:03 43.581844 -116.011637 294 8080ft 270kts
10-May-20 22:04 43.612146 -116.102145 295 8043ft 260kts
10-May-20 22:05 43.638152 -116.182022 295 7971ft 216kts
10-May-20 22:07 43.660884 -116.252233 295 6617ft 198kts
10-May-20 22:08 43.668215 -116.322890 224 5137ft 200kts
10-May-20 22:09 43.617507 -116.342264 180 4362ft 186kts
10-May-20 22:10 43.589669 -116.295162 115 3882ft 154kts
10-May-20 22:11 43.571275 -116.239969 115 2957ft 156kts
10-May-20 22:12 43.565342 -116.222648 115 2877ft 119kts
10-May-20 22:15 43.567008 -116.217470 354 2876ft 6kts
10-May-20 22:16 43.567319 -116.217510 354 2876ft 5kts

Navigation Log

Ident Type
Flight plan parsing failed, navigation log unavailable